createdAt,value
2019-03-12T00:01:48.429Z,7.70
2019-03-12T00:04:24.381Z,8.53
2019-03-12T00:07:01.212Z,8.20
2019-03-12T00:09:43.641Z,8.68
2019-03-12T00:12:19.438Z,8.60
2019-03-12T00:14:54.387Z,8.70
2019-03-12T00:17:23.218Z,8.70
2019-03-12T00:19:52.026Z,8.90
2019-03-12T00:22:27.226Z,8.83
2019-03-12T00:24:56.135Z,8.75
2019-03-12T00:27:24.963Z,8.55
2019-03-12T00:30:00.467Z,8.53
2019-03-12T00:32:29.509Z,8.23
2019-03-12T00:34:58.433Z,7.87
2019-03-12T00:37:34.532Z,8.23
2019-03-12T00:40:03.538Z,8.15
2019-03-12T00:42:32.653Z,8.20
2019-03-12T00:45:07.810Z,7.92
2019-03-12T00:47:36.721Z,7.60
2019-03-12T00:50:06.074Z,7.30
2019-03-12T00:52:41.806Z,7.47
2019-03-12T00:55:10.806Z,7.47
2019-03-12T00:57:40.001Z,8.00
2019-03-12T01:00:18.576Z,7.37
2019-03-12T01:02:47.843Z,7.70
2019-03-12T01:05:29.875Z,7.60
2019-03-12T01:08:06.211Z,7.75
2019-03-12T01:10:42.526Z,7.58
2019-03-12T01:13:18.972Z,7.83
2019-03-12T01:15:55.313Z,8.85
2019-03-12T01:18:24.391Z,7.83
2019-03-12T01:20:53.527Z,7.90
2019-03-12T01:23:29.583Z,7.70
2019-03-12T01:25:58.508Z,7.25
2019-03-12T01:28:27.316Z,7.42
2019-03-12T01:31:03.342Z,7.65
2019-03-12T01:33:32.229Z,7.08
2019-03-12T01:36:01.280Z,7.15
2019-03-12T01:38:37.288Z,7.28
2019-03-12T01:41:06.469Z,7.08
2019-03-12T01:43:35.590Z,7.20
2019-03-12T01:46:10.881Z,7.33
2019-03-12T01:48:40.007Z,7.40
2019-03-12T01:51:09.069Z,7.20
2019-03-12T01:53:45.036Z,7.25
2019-03-12T01:56:14.105Z,7.05
2019-03-12T01:58:43.263Z,7.60
2019-03-12T02:01:19.700Z,7.47
2019-03-12T02:03:48.985Z,7.80
2019-03-12T02:06:31.097Z,7.20
2019-03-12T02:09:09.949Z,8.20
2019-03-12T02:11:45.301Z,7.45
2019-03-12T02:14:28.811Z,7.00
2019-03-12T02:17:04.544Z,7.47
2019-03-12T02:19:33.616Z,8.28
2019-03-12T02:22:02.810Z,7.78
2019-03-12T02:24:51.816Z,8.08
2019-03-12T02:27:09.561Z,8.30
2019-03-12T02:29:38.872Z,8.77
2019-03-12T02:32:15.955Z,8.25
2019-03-12T02:34:45.171Z,8.53
2019-03-12T02:37:14.255Z,8.23
2019-03-12T02:39:49.727Z,8.68
2019-03-12T02:42:19.005Z,8.75
2019-03-12T02:44:49.168Z,9.00
2019-03-12T02:47:25.505Z,8.80
2019-03-12T02:49:54.327Z,9.15
2019-03-12T02:52:23.249Z,9.70
2019-03-12T02:54:58.489Z,10.05
2019-03-12T02:57:27.478Z,10.40
2019-03-12T02:59:56.334Z,11.22
2019-03-12T03:02:31.294Z,11.05
2019-03-12T03:05:00.507Z,10.80
2019-03-12T03:07:56.977Z,11.75
2019-03-12T03:10:33.009Z,11.83
2019-03-12T03:13:08.297Z,12.10
2019-03-12T03:15:45.555Z,12.28
2019-03-12T03:18:20.534Z,11.77
2019-03-12T03:20:49.601Z,11.48
2019-03-12T03:23:18.517Z,12.28
2019-03-12T03:25:53.839Z,12.75
2019-03-12T03:28:22.786Z,12.55
2019-03-12T03:30:51.988Z,12.00
2019-03-12T03:33:27.334Z,12.73
2019-03-12T03:35:56.203Z,12.07
2019-03-12T03:38:25.132Z,12.10
2019-03-12T03:41:01.083Z,11.57
2019-03-12T03:43:30.056Z,12.00
2019-03-12T03:45:59.307Z,12.58
2019-03-12T03:48:34.944Z,12.88
2019-03-12T03:51:03.810Z,12.47
2019-03-12T03:53:33.031Z,12.15
2019-03-12T03:56:08.441Z,12.40
2019-03-12T03:58:37.433Z,12.28
2019-03-12T04:01:06.441Z,12.53
2019-03-12T04:03:41.796Z,12.78
2019-03-12T04:06:10.922Z,11.85
2019-03-12T04:08:53.225Z,12.50
2019-03-12T04:11:28.848Z,11.80
2019-03-12T04:14:04.622Z,11.80
2019-03-12T04:16:40.710Z,12.07
2019-03-12T04:19:16.601Z,12.00
2019-03-12T04:21:45.423Z,11.45
2019-03-12T04:24:14.566Z,11.65
2019-03-12T04:26:50.369Z,11.55
2019-03-12T04:29:19.283Z,11.38
2019-03-12T04:31:48.196Z,11.30
2019-03-12T04:34:30.258Z,11.70
2019-03-12T04:36:59.191Z,11.40
2019-03-12T04:39:28.341Z,11.25
2019-03-12T04:42:04.547Z,11.15
2019-03-12T04:44:33.410Z,11.10
2019-03-12T04:47:02.276Z,11.57
2019-03-12T04:49:37.991Z,11.80
2019-03-12T04:52:06.886Z,10.85
2019-03-12T04:54:35.816Z,11.07
2019-03-12T04:57:11.587Z,10.32
2019-03-12T04:59:40.723Z,11.18
2019-03-12T05:02:09.603Z,10.75
2019-03-12T05:04:44.940Z,11.10
2019-03-12T05:07:20.162Z,10.33
2019-03-12T05:10:02.373Z,10.50
2019-03-12T05:12:31.250Z,10.43
2019-03-12T05:15:00.078Z,11.05
2019-03-12T05:17:42.907Z,10.63
2019-03-12T05:20:13.096Z,10.75
2019-03-12T05:22:41.908Z,10.10
2019-03-12T05:25:18.434Z,9.95
2019-03-12T05:27:47.223Z,10.60
2019-03-12T05:30:16.690Z,10.28
2019-03-12T05:32:53.159Z,9.55
2019-03-12T05:35:21.892Z,10.28
2019-03-12T05:37:50.656Z,9.80
2019-03-12T05:40:25.821Z,9.97
2019-03-12T05:42:54.564Z,9.68
2019-03-12T05:45:23.317Z,10.20
2019-03-12T05:47:58.532Z,9.58
2019-03-12T05:50:27.284Z,9.80
2019-03-12T05:53:17.809Z,9.35
2019-03-12T05:55:46.606Z,9.35
2019-03-12T05:58:15.365Z,8.88
2019-03-12T06:00:50.528Z,9.18
2019-03-12T06:03:19.303Z,9.90
2019-03-12T06:05:48.002Z,9.38
2019-03-12T06:08:23.490Z,9.55
2019-03-12T06:10:58.932Z,9.40
2019-03-12T06:13:34.066Z,8.65
2019-03-12T06:16:02.854Z,8.77
2019-03-12T06:18:45.437Z,8.63
2019-03-12T06:21:14.133Z,8.98
2019-03-12T06:23:42.861Z,8.10
2019-03-12T06:26:18.465Z,8.48
2019-03-12T06:28:47.216Z,7.67
2019-03-12T06:31:48.177Z,7.90
2019-03-12T06:34:21.054Z,7.12
2019-03-12T06:37:00.505Z,6.22
2019-03-12T06:39:34.889Z,6.05
2019-03-12T06:42:20.308Z,6.37
2019-03-12T06:45:13.426Z,6.83
2019-03-12T06:48:09.511Z,6.67
2019-03-12T06:50:44.852Z,5.70
2019-03-12T06:53:40.244Z,6.42
2019-03-12T06:56:43.143Z,6.15
2019-03-12T06:59:29.682Z,6.28
2019-03-12T07:02:17.134Z,6.65
2019-03-12T07:05:29.984Z,6.03
2019-03-12T07:08:26.722Z,6.00
2019-03-12T07:11:14.246Z,5.90
2019-03-12T07:13:49.017Z,7.08
2019-03-12T07:16:32.724Z,6.15
2019-03-12T07:19:20.806Z,6.10
2019-03-12T07:22:17.998Z,6.50
2019-03-12T07:25:17.592Z,6.42
2019-03-12T07:28:10.943Z,6.40
2019-03-12T07:30:53.079Z,7.05
2019-03-12T07:33:51.534Z,7.05
2019-03-12T07:36:29.886Z,7.20
2019-03-12T07:39:12.888Z,6.63
2019-03-12T07:42:01.337Z,7.00
2019-03-12T07:44:49.131Z,7.75
2019-03-12T07:47:35.309Z,6.53
2019-03-12T07:50:19.480Z,6.73
2019-03-12T07:53:08.878Z,6.90
2019-03-12T07:56:02.673Z,7.10
2019-03-12T07:58:48.988Z,6.83
2019-03-12T08:01:31.364Z,7.25
2019-03-12T08:04:20.364Z,7.05
2019-03-12T08:07:19.872Z,6.78
2019-03-12T08:10:26.845Z,6.65
2019-03-12T08:13:19.658Z,6.75
2019-03-12T08:15:57.647Z,7.60
2019-03-12T08:18:50.572Z,7.15
2019-03-12T08:21:32.102Z,6.12
2019-03-12T08:24:39.441Z,6.63
2019-03-12T08:27:26.295Z,7.08
2019-03-12T08:30:08.016Z,7.17
2019-03-12T08:32:54.353Z,6.80
2019-03-12T08:35:52.155Z,7.53
2019-03-12T08:38:42.525Z,7.00
2019-03-12T08:41:37.489Z,7.22
2019-03-12T08:44:20.603Z,7.33
2019-03-12T08:47:07.055Z,7.17
2019-03-12T08:49:42.440Z,7.78
2019-03-12T08:52:26.524Z,7.45
2019-03-12T08:55:13.005Z,7.43
2019-03-12T08:57:59.768Z,7.80
2019-03-12T09:00:50.290Z,7.30
2019-03-12T09:03:48.733Z,7.92
2019-03-12T09:06:35.291Z,7.78
2019-03-12T09:09:27.106Z,7.62
2019-03-12T09:12:36.441Z,7.37
2019-03-12T09:15:30.638Z,6.95
2019-03-12T09:18:21.394Z,7.70
2019-03-12T09:21:14.571Z,6.70
2019-03-12T09:24:05.911Z,6.22
2019-03-12T09:27:07.332Z,5.70
2019-03-12T09:29:44.707Z,5.65
2019-03-12T09:32:34.608Z,5.45
2019-03-12T09:35:13.993Z,5.90
2019-03-12T09:38:00.536Z,6.12
2019-03-12T09:40:42.427Z,5.72
2019-03-12T09:43:27.940Z,5.37
2019-03-12T09:46:06.010Z,5.78
2019-03-12T09:48:51.180Z,5.60
2019-03-12T09:51:24.329Z,5.22
2019-03-12T09:57:51.477Z,4.45
2019-03-12T10:00:32.963Z,4.50
2019-03-12T10:03:34.129Z,4.73
2019-03-12T10:06:20.486Z,4.35
2019-03-12T10:09:05.585Z,4.05
2019-03-12T10:11:58.200Z,4.10
2019-03-12T10:14:49.149Z,4.15
2019-03-12T10:17:36.897Z,3.75
2019-03-12T10:20:31.692Z,3.52
2019-03-12T10:23:19.562Z,3.30
2019-03-12T10:26:13.171Z,3.12
2019-03-12T10:29:14.540Z,3.12
2019-03-12T10:32:18.407Z,3.27
2019-03-12T10:35:06.238Z,2.90
2019-03-12T10:38:01.045Z,2.63
2019-03-12T10:40:42.172Z,2.37
2019-03-12T10:43:39.075Z,2.50
2019-03-12T10:46:25.940Z,2.35
2019-03-12T10:49:01.546Z,2.27
2019-03-12T10:51:30.319Z,2.10
2019-03-12T10:53:59.090Z,2.27
2019-03-12T10:56:33.996Z,2.20
2019-03-12T10:59:02.720Z,1.90
2019-03-12T11:01:32.050Z,2.40
2019-03-12T11:04:07.198Z,1.70
2019-03-12T11:06:35.959Z,1.77
2019-03-12T11:09:06.969Z,1.80
2019-03-12T11:11:42.609Z,1.67
2019-03-12T11:14:18.961Z,1.42
2019-03-12T11:16:54.047Z,1.42
2019-03-12T11:19:22.817Z,1.50
2019-03-12T11:21:51.560Z,1.40
2019-03-12T11:24:27.219Z,1.40
2019-03-12T11:26:56.069Z,1.30
2019-03-12T11:29:24.901Z,1.40
2019-03-12T11:32:07.572Z,1.30
2019-03-12T11:34:38.534Z,1.13
2019-03-12T11:37:07.010Z,1.12
2019-03-12T11:39:42.688Z,1.07
2019-03-12T11:42:11.525Z,1.00
2019-03-12T11:44:40.283Z,1.10
2019-03-12T11:47:15.616Z,1.05
2019-03-12T11:49:44.472Z,0.90
2019-03-12T11:52:13.310Z,0.95
2019-03-12T11:54:48.632Z,0.93
2019-03-12T11:57:17.453Z,0.90
2019-03-12T11:59:46.310Z,0.93
2019-03-12T12:02:21.642Z,0.90
2019-03-12T12:04:50.487Z,0.90
2019-03-12T12:07:19.308Z,1.00
2019-03-12T12:09:54.573Z,0.88
2019-03-12T12:12:29.766Z,1.00
2019-03-12T12:15:11.929Z,0.80
2019-03-12T12:17:40.879Z,0.80
2019-03-12T12:20:09.931Z,0.90
2019-03-12T12:22:45.508Z,0.82
2019-03-12T12:25:14.704Z,0.85
2019-03-12T12:27:43.495Z,0.57
2019-03-12T12:30:21.879Z,0.70
2019-03-12T12:32:57.654Z,0.72
2019-03-12T12:35:33.064Z,0.70
2019-03-12T12:38:01.836Z,0.80
2019-03-12T12:40:30.609Z,0.70
2019-03-12T12:43:05.724Z,0.70
2019-03-12T12:45:34.566Z,0.75
2019-03-12T12:48:03.440Z,0.70
2019-03-12T12:50:38.605Z,0.75
2019-03-12T12:53:07.530Z,0.68
2019-03-12T12:55:36.388Z,0.80
2019-03-12T12:58:11.786Z,0.80
2019-03-12T13:00:40.549Z,0.70
2019-03-12T13:03:09.388Z,0.50
2019-03-12T13:05:44.976Z,0.60
2019-03-12T13:08:13.805Z,0.68
2019-03-12T13:10:42.599Z,0.70
2019-03-12T13:13:17.761Z,0.82
2019-03-12T13:15:53.536Z,0.85
2019-03-12T13:18:29.264Z,0.70
2019-03-12T13:20:58.043Z,0.90
2019-03-12T13:23:26.929Z,0.90
2019-03-12T13:26:02.853Z,0.70
2019-03-12T13:28:31.584Z,0.82
2019-03-12T13:31:00.403Z,0.90
2019-03-12T13:33:35.495Z,0.90
2019-03-12T13:36:16.292Z,0.90
2019-03-12T13:38:51.452Z,0.93
2019-03-12T13:41:20.724Z,0.90
2019-03-12T13:43:49.717Z,0.90
2019-03-12T13:46:24.823Z,1.07
2019-03-12T13:48:53.617Z,0.93
2019-03-12T13:51:22.384Z,0.90
2019-03-12T13:53:57.668Z,0.73
2019-03-12T13:56:26.420Z,1.02
2019-03-12T13:58:55.292Z,0.70
2019-03-12T14:01:31.154Z,1.07
2019-03-12T14:04:10.122Z,0.85
2019-03-12T14:06:30.360Z,0.80
2019-03-12T14:09:06.071Z,0.80
2019-03-12T14:11:34.808Z,1.07
2019-03-12T14:14:16.493Z,0.80
2019-03-12T14:16:52.410Z,0.90
2019-03-12T14:19:27.999Z,0.93
2019-03-12T14:21:57.003Z,0.80
2019-03-12T14:24:25.763Z,0.80
2019-03-12T14:27:01.087Z,0.90
2019-03-12T14:29:29.825Z,0.80
2019-03-12T14:31:58.560Z,0.80
2019-03-12T14:34:34.073Z,0.90
2019-03-12T14:37:09.782Z,1.00
2019-03-12T14:39:45.021Z,1.27
2019-03-12T14:42:13.812Z,1.37
2019-03-12T14:44:42.634Z,1.30
2019-03-12T14:47:18.137Z,1.20
2019-03-12T14:49:46.877Z,1.07
2019-03-12T14:52:35.108Z,1.00
2019-03-12T14:55:03.937Z,1.02
2019-03-12T14:57:32.769Z,1.15
2019-03-12T15:00:07.679Z,1.30
2019-03-12T15:02:37.065Z,1.10
2019-03-12T15:05:06.388Z,1.25
2019-03-12T15:07:41.658Z,1.20
2019-03-12T15:10:11.377Z,1.20
2019-03-12T15:12:53.237Z,1.35
2019-03-12T15:15:28.083Z,1.30
2019-03-12T15:18:03.377Z,1.40
2019-03-12T15:20:32.112Z,1.20
2019-03-12T15:23:00.811Z,1.20
2019-03-12T15:25:36.070Z,1.27
2019-03-12T15:28:04.857Z,1.30
2019-03-12T15:30:33.681Z,1.60
2019-03-12T15:33:08.768Z,1.70
2019-03-12T15:35:37.537Z,1.30
2019-03-12T15:38:19.956Z,1.50
2019-03-12T15:40:48.737Z,1.40
2019-03-12T15:43:17.542Z,1.70
2019-03-12T15:45:53.128Z,1.70
2019-03-12T15:48:21.881Z,1.60
2019-03-12T15:50:50.638Z,1.77
2019-03-12T15:53:25.879Z,1.90
2019-03-12T15:55:55.992Z,1.60
2019-03-12T15:58:24.967Z,1.75
2019-03-12T16:01:02.671Z,1.60
2019-03-12T16:03:31.141Z,1.50
2019-03-12T16:06:02.104Z,1.65
2019-03-12T16:08:37.405Z,1.60
2019-03-12T16:11:06.258Z,1.60
2019-03-12T16:13:48.527Z,1.47
2019-03-12T16:16:23.471Z,1.62
2019-03-12T16:18:58.922Z,1.87
2019-03-12T16:21:27.737Z,1.70
2019-03-12T16:23:57.131Z,1.90
2019-03-12T16:26:31.961Z,1.85
2019-03-12T16:29:00.693Z,1.72
2019-03-12T16:31:29.480Z,1.70
2019-03-12T16:34:04.424Z,1.50
2019-03-12T16:36:33.296Z,1.72
2019-03-12T16:39:15.844Z,1.70
2019-03-12T16:42:11.500Z,1.50
2019-03-12T16:44:52.565Z,1.57
2019-03-12T16:47:21.347Z,1.80
2019-03-12T16:49:53.027Z,1.63
2019-03-12T16:52:28.165Z,1.77
2019-03-12T16:54:56.981Z,1.60
2019-03-12T16:57:26.056Z,1.62
2019-03-12T17:00:01.136Z,1.90
2019-03-12T17:02:29.951Z,1.72
2019-03-12T17:04:58.682Z,1.95
2019-03-12T17:07:33.934Z,1.70
2019-03-12T17:10:02.679Z,1.60
2019-03-12T17:12:31.770Z,1.50
2019-03-12T17:15:06.886Z,1.72
2019-03-12T17:17:35.613Z,1.50
2019-03-12T17:20:04.872Z,1.70
2019-03-12T17:22:41.001Z,1.50
2019-03-12T17:25:10.186Z,1.72
2019-03-12T17:27:39.064Z,1.40
2019-03-12T17:30:18.283Z,1.50
2019-03-12T17:32:47.042Z,1.60
2019-03-12T17:35:18.570Z,1.70
2019-03-12T17:37:54.123Z,1.80
2019-03-12T17:40:30.180Z,1.80
2019-03-12T17:43:12.409Z,1.85
2019-03-12T17:45:47.953Z,2.35
2019-03-12T17:48:23.924Z,2.03
2019-03-12T17:50:52.650Z,1.83
2019-03-12T17:53:21.346Z,1.90
2019-03-12T17:55:56.575Z,2.10
2019-03-12T17:58:25.357Z,2.08
2019-03-12T18:00:54.188Z,1.95
2019-03-12T18:03:44.246Z,2.00
2019-03-12T18:06:20.045Z,1.98
2019-03-12T18:08:55.783Z,2.20
2019-03-12T18:11:24.518Z,2.30
2019-03-12T18:13:53.248Z,2.20
2019-03-12T18:16:40.578Z,2.20
2019-03-12T18:18:59.882Z,2.12
2019-03-12T18:21:28.638Z,2.70
2019-03-12T18:24:09.969Z,2.40
2019-03-12T18:26:38.927Z,2.15
2019-03-12T18:29:07.784Z,2.37
2019-03-12T18:31:43.020Z,2.00
2019-03-12T18:34:11.798Z,2.20
2019-03-12T18:36:40.550Z,2.02
2019-03-12T18:39:16.388Z,2.30
2019-03-12T18:41:52.087Z,2.00
2019-03-12T18:44:34.430Z,2.10
2019-03-12T18:47:09.967Z,2.00
2019-03-12T18:49:45.564Z,2.10
2019-03-12T18:52:14.396Z,2.33
2019-03-12T18:54:43.131Z,2.30
2019-03-12T18:57:18.190Z,2.35
2019-03-12T18:59:46.900Z,2.05
2019-03-12T19:02:15.688Z,2.05
2019-03-12T19:04:51.240Z,2.22
2019-03-12T19:07:20.066Z,2.47
2019-03-12T19:09:48.774Z,2.20
2019-03-12T19:12:25.898Z,2.27
2019-03-12T19:14:54.603Z,2.43
2019-03-12T19:17:23.334Z,2.42
2019-03-12T19:19:58.922Z,2.30
2019-03-12T19:22:27.663Z,2.30
2019-03-12T19:24:56.471Z,2.53
2019-03-12T19:27:31.636Z,1.95
2019-03-12T19:30:00.466Z,2.45
2019-03-12T19:32:48.776Z,2.37
2019-03-12T19:35:17.671Z,2.30
2019-03-12T19:37:46.603Z,2.50
2019-03-12T19:40:24.041Z,2.58
2019-03-12T19:43:00.605Z,2.30
2019-03-12T19:45:42.931Z,2.40
2019-03-12T19:48:19.467Z,2.37
2019-03-12T19:50:55.350Z,2.33
2019-03-12T19:53:24.061Z,2.27
2019-03-12T19:55:53.127Z,2.30
2019-03-12T19:58:28.736Z,2.40
2019-03-12T20:00:58.072Z,2.50
2019-03-12T20:03:26.911Z,2.00
2019-03-12T20:06:02.595Z,2.10
2019-03-12T20:08:31.316Z,2.40
2019-03-12T20:11:55.908Z,2.10
2019-03-12T20:15:12.198Z,2.10
2019-03-12T20:18:33.100Z,2.20
2019-03-12T20:21:37.035Z,2.12
2019-03-12T20:24:46.480Z,2.47
2019-03-12T20:28:07.494Z,2.20
2019-03-12T20:31:20.879Z,2.20
2019-03-12T20:34:27.088Z,2.27
2019-03-12T20:37:45.801Z,2.00
2019-03-12T20:41:05.130Z,2.17
2019-03-12T20:44:38.488Z,2.20
2019-03-12T20:47:45.023Z,1.90
2019-03-12T20:50:56.438Z,2.08
2019-03-12T20:54:10.196Z,2.40
2019-03-12T20:57:30.708Z,2.20
2019-03-12T21:00:41.899Z,2.52
2019-03-12T21:04:09.857Z,2.42
2019-03-12T21:07:18.246Z,2.52
2019-03-12T21:10:30.896Z,2.50
2019-03-12T21:13:36.195Z,2.50
2019-03-12T21:17:07.954Z,2.30
2019-03-12T21:20:08.602Z,2.20
2019-03-12T21:23:30.462Z,2.42
2019-03-12T21:26:43.711Z,2.33
2019-03-12T21:29:50.642Z,2.42
2019-03-12T21:32:19.786Z,2.45
2019-03-12T21:34:48.868Z,2.30
2019-03-12T21:37:24.561Z,2.47
2019-03-12T21:39:56.053Z,2.53
2019-03-12T21:42:25.428Z,2.50
2019-03-12T21:45:07.762Z,2.62
2019-03-12T21:47:42.615Z,2.20
2019-03-12T21:50:18.364Z,2.40
2019-03-12T21:52:47.094Z,2.62
2019-03-12T21:55:15.896Z,2.72
2019-03-12T21:57:51.098Z,2.47
2019-03-12T22:00:19.989Z,2.20
2019-03-12T22:02:48.729Z,2.10
2019-03-12T22:05:24.450Z,2.27
2019-03-12T22:07:54.702Z,2.25
2019-03-12T22:10:23.447Z,2.25
2019-03-12T22:12:58.540Z,2.08
2019-03-12T22:15:29.728Z,2.40
2019-03-12T22:17:57.770Z,2.15
2019-03-12T22:20:32.939Z,2.40
2019-03-12T22:23:29.800Z,2.30
2019-03-12T22:26:04.783Z,2.20
2019-03-12T22:28:33.524Z,2.25
2019-03-12T22:31:02.858Z,2.10
2019-03-12T22:33:38.280Z,2.47
2019-03-12T22:36:07.081Z,2.10
2019-03-12T22:38:35.913Z,2.45
2019-03-12T22:41:11.492Z,2.70
2019-03-12T22:43:40.217Z,2.37
2019-03-12T22:46:28.936Z,2.37
2019-03-12T22:48:57.704Z,2.35
2019-03-12T22:51:26.415Z,2.20
2019-03-12T22:54:01.721Z,2.42
2019-03-12T22:56:30.511Z,2.45
2019-03-12T22:58:59.401Z,2.20
2019-03-12T23:01:34.420Z,2.40
2019-03-12T23:04:03.204Z,2.33
2019-03-12T23:06:31.959Z,2.42
2019-03-12T23:09:07.524Z,2.12
2019-03-12T23:11:36.316Z,2.35
2019-03-12T23:14:05.231Z,2.67
2019-03-12T23:16:40.070Z,2.27
2019-03-12T23:19:08.806Z,2.17
2019-03-12T23:21:37.538Z,2.50
2019-03-12T23:24:12.855Z,2.30
2019-03-12T23:26:41.607Z,2.50
2019-03-12T23:29:10.350Z,2.33
2019-03-12T23:31:45.896Z,2.40
2019-03-12T23:34:14.721Z,2.40
2019-03-12T23:36:43.610Z,2.15
2019-03-12T23:39:19.267Z,2.37
2019-03-12T23:41:48.009Z,2.25
2019-03-12T23:44:16.793Z,2.30
2019-03-12T23:46:52.575Z,2.25
2019-03-12T23:49:27.711Z,2.40
2019-03-12T23:52:03.679Z,2.45
2019-03-12T23:54:33.275Z,2.12
2019-03-12T23:57:02.119Z,2.10
2019-03-12T23:59:37.155Z,2.50
